This is the latest recevied weather packets stored in our database for station/object W5DNT. If no packets are shown the sender has not sent any weather packets the latest 1 day(s).
| Time | Temp. | Humidity | Pressure | Rain* | Wind** | Luminosity | Snow |
|---|---|---|---|---|---|---|---|
| 1778031990 | 26.67° C | 70% | 1003.9 hPa | 0 mm | 0 m/s | - | - |
| 1778031029 | 27.22° C | 69% | 1003.6 hPa | 0 mm | 0 m/s | - | - |
| 1778030129 | 27.78° C | 67% | 1003.5 hPa | 0 mm | 0 m/s | - | - |
| 1778029229 | 28.33° C | 67% | 1003.4 hPa | 0 mm | 0 m/s | - | - |
| 1778028328 | 28.89° C | 66% | 1003.2 hPa | 0 mm | 0 m/s | - | - |
| 1778027427 | 28.89° C | 65% | 1003.4 hPa | 0 mm | 0 m/s | - | - |
| 1778026527 | 29.44° C | 65% | 1003.4 hPa | 0 mm | 0 m/s | - | - |
| 1778025627 | 30° C | 65% | 1003.5 hPa | 0 mm | 0 m/s | - | - |
| 1778024727 | 30° C | 64% | 1003.4 hPa | 0 mm | 0 m/s | - | - |
| 1778023825 | 30.56° C | 63% | 1003.3 hPa | 0 mm | 0 m/s | - | - |
| 1778022930 | 31.67° C | 60% | 1003.2 hPa | 0 mm | 0 m/s | - | - |
| 1778022030 | 32.22° C | 58% | 1003.2 hPa | 0 mm | 0 m/s | - | - |
| 1778021124 | 32.78° C | 51% | 1003.2 hPa | 0 mm | 0 m/s | - | - |
| 1778020223 | 32.78° C | 53% | 1003.2 hPa | 0 mm | 0 m/s | - | - |
| 1778019322 | 32.78° C | 50% | 1003.1 hPa | 0 mm | 0 m/s | - | - |
| 1778018420 | 32.78° C | 51% | 1003.2 hPa | 0 mm | 0 m/s | - | - |
| 1778017522 | 32.22° C | 52% | 1003.4 hPa | 0 mm | 0 m/s | - | - |
| 1778016619 | 32.22° C | 52% | 1003.3 hPa | 0 mm | 0 m/s | - | - |
| 1778015717 | 32.78° C | 53% | 1003.4 hPa | 0 mm | 0 m/s | - | - |
| 1778014820 | 32.22° C | 56% | 1003.6 hPa | 0 mm | 0 m/s | - | - |
| 1778013911 | 31.67° C | 56% | 1004 hPa | 0 mm | 0 m/s | - | - |
| 1778013009 | 31.67° C | 59% | 1003.9 hPa | 0 mm | 0 m/s | - | - |
| 1778012107 | 31.67° C | 57% | 1004.1 hPa | 0 mm | 0 m/s | - | - |
| 1778011204 | 31.67° C | 66% | 1004.5 hPa | 0 mm | 0 m/s | - | - |
| 1778010304 | 31.11° C | 64% | 1004.6 hPa | 0 mm | 0 m/s | - | - |
* Rain latest hour (hover to see other rain measurements)
** Current wind speed in m/s (hover to see current wind gust speed)